Time;durP1;ratioP1;P1;durP2;ratioP2;P2;SDS_P1;SDS_P2;PMS_P1;PMS_P2;Temp;Humidity;BMP_temperature;BMP_pressure;BME280_temperature;BME280_humidity;BME280_pressure;Samples;Min_cycle;Max_cycle;Signal;HPM_P1;HPM_P2
2023/04/12 00:01:06;;;;;;;8.33;2.87;;;19.80;64.60;;;;;;5074909;28;20183;-68
2023/04/12 00:03:33;;;;;;;9.30;2.23;;;19.80;64.90;;;;;;5075375;28;20318;-70
2023/04/12 00:06:06;;;;;;;10.03;2.67;;;20.00;64.00;;;;;;5073949;28;20281;-67
2023/04/12 00:08:34;;;;;;;8.47;2.60;;;20.10;63.20;;;;;;5072034;28;20306;-67
2023/04/12 00:11:02;;;;;;;13.70;3.27;;;20.30;63.80;;;;;;5070917;28;20202;-67
2023/04/12 00:13:30;;;;;;;9.10;2.60;;;20.30;62.60;;;;;;5072821;28;20557;-65
2023/04/12 00:15:57;;;;;;;7.37;2.27;;;20.50;62.40;;;;;;5071820;28;20221;-70
2023/04/12 00:18:25;;;;;;;7.17;2.40;;;20.70;62.00;;;;;;5075180;28;20180;-67
2023/04/12 00:20:52;;;;;;;6.13;2.40;;;20.80;62.00;;;;;;5075511;28;20297;-67
2023/04/12 00:23:20;;;;;;;6.17;2.27;;;20.90;61.90;;;;;;5075299;28;20210;-66
2023/04/12 00:25:47;;;;;;;6.90;2.27;;;21.10;61.50;;;;;;5072785;28;20195;-66
2023/04/12 00:28:15;;;;;;;8.33;2.47;;;20.90;61.00;;;;;;5072360;28;20613;-66
2023/04/12 00:30:42;;;;;;;6.17;1.90;;;21.20;61.00;;;;;;5073337;28;20198;-67
2023/04/12 00:33:09;;;;;;;7.77;2.27;;;21.20;60.00;;;;;;5075381;28;20184;-65
2023/04/12 00:35:37;;;;;;;6.27;2.17;;;21.10;60.80;;;;;;5072400;28;20183;-66
2023/04/12 00:38:09;;;;;;;8.23;2.37;;;21.30;60.10;;;;;;5073542;28;20530;-65
2023/04/12 00:40:40;;;;;;;5.53;2.10;;;20.90;61.40;;;;;;5058696;28;20194;-66
2023/04/12 00:43:09;;;;;;;8.10;2.10;;;21.10;60.40;;;;;;5054915;28;20212;-65
2023/04/12 00:45:36;;;;;;;3.03;1.60;;;21.20;60.70;;;;;;5060067;28;20258;-65
2023/04/12 00:48:05;;;;;;;3.33;1.80;;;21.20;60.50;;;;;;5073732;28;20191;-65
2023/04/12 00:50:34;;;;;;;6.23;1.87;;;21.00;59.50;;;;;;5073174;28;20237;-66
2023/04/12 00:53:03;;;;;;;4.10;1.37;;;20.90;60.50;;;;;;5073106;28;20183;-67
2023/04/12 00:55:31;;;;;;;6.67;1.90;;;20.80;60.00;;;;;;5073955;28;20175;-66
2023/04/12 00:57:58;;;;;;;3.87;1.63;;;20.80;59.70;;;;;;5074990;28;20199;-67
2023/04/12 01:00:26;;;;;;;6.60;1.97;;;21.10;59.80;;;;;;5067480;28;20614;-67
2023/04/12 01:02:54;;;;;;;5.90;2.00;;;21.30;59.30;;;;;;5071592;28;20233;-66
2023/04/12 01:05:23;;;;;;;7.30;2.07;;;21.50;58.80;;;;;;5060073;28;20652;-69
2023/04/12 01:08:48;;;;;;;5.70;2.40;;;21.60;59.00;;;;;;5055531;28;20180;-68
2023/04/12 01:11:19;;;;;;;3.97;1.97;;;21.60;58.00;;;;;;5049584;28;20204;-66
2023/04/12 01:13:56;;;;;;;4.03;2.23;;;21.90;58.20;;;;;;5073579;28;20199;-65
2023/04/12 01:16:56;;;;;;;8.27;2.00;;;22.10;56.10;;;;;;5062611;28;20599;-68
2023/04/12 01:19:44;;;;;;;7.17;2.20;;;22.00;56.40;;;;;;5065119;28;20266;-67
2023/04/12 01:22:31;;;;;;;9.47;2.60;;;21.80;57.80;;;;;;5069682;28;20175;-70
2023/04/12 01:25:22;;;;;;;7.67;2.30;;;22.20;56.90;;;;;;5066108;28;20679;-68
2023/04/12 01:27:59;;;;;;;8.67;2.30;;;22.30;56.70;;;;;;5063252;28;20179;-69
2023/04/12 01:30:28;;;;;;;8.10;2.20;;;22.30;55.60;;;;;;5066965;28;20271;-67
2023/04/12 01:32:59;;;;;;;6.47;2.10;;;22.00;56.60;;;;;;5075476;28;20187;-66
2023/04/12 01:35:30;;;;;;;5.07;2.60;;;22.00;56.20;;;;;;5070941;28;20187;-69
2023/04/12 01:37:59;;;;;;;6.53;2.37;;;22.10;56.20;;;;;;5072314;28;20179;-65
2023/04/12 01:40:28;;;;;;;6.53;2.27;;;21.90;56.00;;;;;;5072519;28;20710;-72
2023/04/12 01:43:08;;;;;;;5.40;2.40;;;21.70;56.50;;;;;;5071717;28;20567;-68
2023/04/12 01:45:36;;;;;;;7.63;1.97;;;21.70;57.80;;;;;;5072007;28;20214;-67
2023/04/12 01:48:06;;;;;;;8.90;2.40;;;21.60;58.00;;;;;;5068077;28;20229;-66
2023/04/12 01:50:49;;;;;;;6.83;2.30;;;21.60;58.50;;;;;;5070094;28;20213;-66
2023/04/12 01:53:26;;;;;;;6.43;2.23;;;21.60;58.50;;;;;;5069081;28;20308;-71
2023/04/12 01:55:59;;;;;;;5.67;2.10;;;21.50;57.40;;;;;;5068909;28;20205;-68
2023/04/12 01:58:28;;;;;;;9.30;2.60;;;21.60;57.70;;;;;;5073110;28;20610;-68
2023/04/12 02:00:58;;;;;;;6.50;2.13;;;21.60;58.40;;;;;;5070167;28;20187;-70
2023/04/12 02:03:29;;;;;;;6.23;1.90;;;21.40;58.70;;;;;;5066145;28;20215;-65
2023/04/12 02:05:58;;;;;;;12.87;2.67;;;21.30;59.20;;;;;;5066009;28;20578;-71
2023/04/12 02:08:26;;;;;;;6.07;2.50;;;21.10;60.50;;;;;;5070909;28;20525;-68
2023/04/12 02:10:53;;;;;;;5.77;2.13;;;21.20;62.30;;;;;;5072776;28;20551;-66
2023/04/12 02:13:21;;;;;;;9.63;2.00;;;21.20;61.50;;;;;;5071108;28;20646;-70
2023/04/12 02:15:49;;;;;;;9.30;2.23;;;21.40;61.40;;;;;;5071770;28;20181;-72
2023/04/12 02:18:16;;;;;;;5.03;1.97;;;21.60;60.00;;;;;;5076168;28;20262;-72
2023/04/12 02:20:43;;;;;;;7.03;1.80;;;21.70;58.60;;;;;;5073861;28;20592;-69
2023/04/12 02:23:11;;;;;;;10.67;2.23;;;21.60;56.90;;;;;;5066699;28;20212;-67
2023/04/12 02:25:40;;;;;;;5.33;1.93;;;21.70;55.20;;;;;;5065402;28;20177;-70
2023/04/12 02:28:07;;;;;;;5.97;2.20;;;21.90;54.70;;;;;;5070127;28;20179;-68
2023/04/12 02:30:34;;;;;;;10.67;4.20;;;22.00;55.60;;;;;;5069728;28;20274;-70
2023/04/12 02:33:03;;;;;;;4.80;2.10;;;22.20;56.60;;;;;;5070628;28;20187;-69
2023/04/12 02:35:31;;;;;;;6.90;2.37;;;22.30;56.20;;;;;;5070281;28;20186;-70
2023/04/12 02:37:58;;;;;;;10.80;2.57;;;22.40;55.80;;;;;;5070699;28;20179;-73
2023/04/12 02:40:26;;;;;;;12.67;2.43;;;22.70;55.10;;;;;;5066166;28;20236;-67
2023/04/12 02:42:53;;;;;;;9.07;2.87;;;22.50;54.90;;;;;;5066647;28;20282;-69
2023/04/12 02:45:21;;;;;;;7.13;1.97;;;22.30;55.00;;;;;;5070918;28;20198;-67
2023/04/12 02:47:48;;;;;;;8.27;2.47;;;22.10;55.40;;;;;;5062644;28;20262;-71
2023/04/12 02:50:15;;;;;;;4.33;1.70;;;22.10;55.60;;;;;;5069795;28;20261;-69
2023/04/12 02:52:45;;;;;;;4.37;1.60;;;22.10;53.10;;;;;;5069907;28;20183;-64
2023/04/12 02:55:13;;;;;;;5.73;1.80;;;22.00;52.30;;;;;;5070448;28;20190;-63
2023/04/12 02:57:40;;;;;;;8.10;2.60;;;22.00;53.30;;;;;;5070492;28;20519;-65
2023/04/12 03:00:10;;;;;;;14.20;4.27;;;21.90;53.90;;;;;;5072567;28;20190;-67
2023/04/12 03:02:38;;;;;;;6.20;2.03;;;21.80;54.40;;;;;;5069156;28;20197;-68
2023/04/12 03:05:07;;;;;;;14.27;3.50;;;21.70;54.60;;;;;;5067395;28;20232;-68
2023/04/12 03:07:35;;;;;;;7.63;2.43;;;21.70;55.60;;;;;;5068081;28;20220;-68
2023/04/12 03:10:05;;;;;;;8.13;1.97;;;21.70;55.10;;;;;;5068938;28;20689;-67
2023/04/12 03:12:33;;;;;;;12.07;2.70;;;21.70;55.00;;;;;;5069693;28;20172;-66
2023/04/12 03:15:01;;;;;;;7.33;2.43;;;21.80;55.40;;;;;;5067993;28;20215;-69
2023/04/12 03:17:28;;;;;;;7.40;2.07;;;21.80;54.30;;;;;;5066452;28;20187;-68
2023/04/12 03:19:59;;;;;;;5.33;1.90;;;21.80;53.50;;;;;;5075363;28;20181;-66
2023/04/12 03:22:26;;;;;;;5.17;1.73;;;21.60;53.40;;;;;;5067511;28;20171;-67
2023/04/12 03:24:54;;;;;;;5.20;2.10;;;21.50;54.20;;;;;;5061047;28;20245;-67
2023/04/12 03:27:21;;;;;;;8.33;2.37;;;21.60;54.00;;;;;;5056530;28;20507;-70
2023/04/12 03:29:48;;;;;;;6.13;2.30;;;21.60;54.00;;;;;;5068469;28;20300;-68
2023/04/12 03:32:16;;;;;;;5.33;2.37;;;21.60;54.50;;;;;;5075304;28;20177;-67
2023/04/12 03:34:44;;;;;;;5.27;2.10;;;21.60;53.70;;;;;;5075273;28;20266;-66
2023/04/12 03:37:11;;;;;;;3.93;1.90;;;21.60;53.30;;;;;;5075557;28;20197;-67
2023/04/12 03:39:39;;;;;;;6.03;2.00;;;21.80;53.30;;;;;;5075965;28;20172;-68
2023/04/12 03:42:06;;;;;;;9.27;2.03;;;21.90;53.50;;;;;;5075825;28;20630;-66
2023/04/12 03:44:33;;;;;;;5.83;2.23;;;22.20;52.60;;;;;;5075781;28;20229;-67
2023/04/12 03:47:01;;;;;;;5.90;1.87;;;22.30;52.30;;;;;;5056198;28;20187;-68
2023/04/12 03:49:28;;;;;;;4.50;1.90;;;22.30;51.80;;;;;;5075475;28;20188;-65
2023/04/12 03:51:56;;;;;;;5.80;1.50;;;22.30;49.40;;;;;;5075829;28;20638;-68
2023/04/12 03:54:23;;;;;;;4.00;1.93;;;22.20;48.80;;;;;;5075541;28;20187;-66
2023/04/12 03:56:50;;;;;;;4.43;1.67;;;22.20;49.60;;;;;;5075551;28;20167;-69
2023/04/12 03:59:17;;;;;;;6.97;2.17;;;22.10;50.60;;;;;;5068874;28;20191;-69
2023/04/12 04:01:45;;;;;;;7.73;2.30;;;22.10;52.30;;;;;;5055443;28;20213;-68
2023/04/12 04:04:12;;;;;;;7.80;1.80;;;22.20;52.10;;;;;;5065609;28;20218;-69
2023/04/12 04:06:40;;;;;;;3.40;1.60;;;22.10;49.50;;;;;;5066869;28;20183;-67
2023/04/12 04:09:07;;;;;;;2.37;1.40;;;21.90;46.80;;;;;;5079254;28;20693;-69
2023/04/12 04:11:36;;;;;;;4.00;1.30;;;21.90;47.00;;;;;;5065908;28;20201;-66
2023/04/12 04:14:03;;;;;;;4.07;1.50;;;21.90;47.30;;;;;;5059603;28;20664;-68
2023/04/12 04:16:31;;;;;;;6.60;1.50;;;22.20;46.50;;;;;;5065143;28;20184;-68
2023/04/12 04:18:58;;;;;;;2.93;1.13;;;22.50;45.10;;;;;;5074861;28;20186;-65
2023/04/12 04:21:25;;;;;;;2.90;1.00;;;22.80;43.60;;;;;;5075402;28;20183;-66
2023/04/12 04:23:53;;;;;;;4.97;1.10;;;22.70;43.80;;;;;;5072798;28;20559;-66
2023/04/12 04:26:32;;;;;;;2.07;1.23;;;22.50;44.20;;;;;;5073023;28;20229;-67
2023/04/12 04:29:03;;;;;;;4.70;1.40;;;22.30;43.20;;;;;;5084610;28;20179;-66
2023/04/12 04:31:35;;;;;;;2.07;1.40;;;22.20;45.00;;;;;;5078480;28;20577;-67
2023/04/12 04:34:04;;;;;;;3.43;1.73;;;22.10;46.50;;;;;;5074976;28;20576;-67
2023/04/12 04:36:36;;;;;;;4.83;2.03;;;22.00;47.10;;;;;;5073374;28;20179;-66
2023/04/12 04:39:04;;;;;;;2.93;1.40;;;21.80;47.00;;;;;;5069124;28;20354;-67
2023/04/12 04:41:37;;;;;;;4.13;1.47;;;21.80;47.90;;;;;;5073965;28;20304;-66
2023/04/12 04:44:08;;;;;;;2.43;1.20;;;21.90;47.40;;;;;;5087379;28;20225;-66
2023/04/12 04:46:36;;;;;;;2.37;1.30;;;21.80;47.10;;;;;;5072375;28;20215;-67
2023/04/12 04:49:04;;;;;;;5.00;1.83;;;21.50;47.10;;;;;;5081632;28;20644;-67
2023/04/12 04:51:32;;;;;;;2.33;1.10;;;21.50;47.70;;;;;;5078748;28;20187;-65
2023/04/12 04:54:00;;;;;;;2.03;1.10;;;21.40;47.80;;;;;;5074385;28;20589;-67
2023/04/12 04:56:28;;;;;;;4.07;1.37;;;21.40;47.50;;;;;;5073698;28;20186;-72
2023/04/12 04:58:55;;;;;;;4.60;1.70;;;21.50;47.90;;;;;;5076253;28;20187;-70
2023/04/12 05:01:26;;;;;;;4.43;1.50;;;21.60;47.40;;;;;;5089882;28;20186;-71
2023/04/12 05:03:54;;;;;;;4.43;1.20;;;21.80;47.70;;;;;;5074501;28;20661;-73
2023/04/12 05:06:21;;;;;;;2.37;1.30;;;21.80;47.40;;;;;;5076078;28;20179;-71
2023/04/12 05:08:51;;;;;;;3.10;1.47;;;21.70;46.00;;;;;;5077028;28;20241;-70
2023/04/12 05:11:18;;;;;;;1.57;1.13;;;21.70;46.80;;;;;;5074531;28;20244;-71
2023/04/12 05:13:46;;;;;;;2.67;1.20;;;21.90;46.60;;;;;;5061501;28;20556;-71
2023/04/12 05:16:13;;;;;;;1.50;1.03;;;22.50;44.50;;;;;;5072001;28;20289;-70
2023/04/12 05:18:41;;;;;;;4.13;1.20;;;24.00;42.60;;;;;;5069949;28;20187;-67
2023/04/12 05:21:08;;;;;;;3.73;1.03;;;25.30;38.60;;;;;;5073500;28;20594;-67
2023/04/12 05:23:37;;;;;;;10.97;2.13;;;26.20;36.30;;;;;;5073282;28;20317;-67
2023/04/12 05:26:05;;;;;;;4.03;1.30;;;25.80;36.80;;;;;;5076813;28;20531;-66
2023/04/12 05:28:32;;;;;;;2.80;1.20;;;24.80;38.00;;;;;;5080709;28;20190;-65
2023/04/12 05:31:00;;;;;;;2.47;1.30;;;24.10;39.30;;;;;;5072758;28;20831;-67
2023/04/12 05:33:27;;;;;;;2.20;1.20;;;23.30;40.40;;;;;;5068321;28;20197;-68
2023/04/12 05:35:54;;;;;;;3.43;1.30;;;23.30;41.40;;;;;;5072077;28;20215;-71
2023/04/12 05:38:22;;;;;;;6.70;1.23;;;24.60;39.90;;;;;;5068935;28;20539;-70
2023/04/12 05:40:50;;;;;;;2.97;1.10;;;25.80;36.90;;;;;;5072166;28;20187;-69
2023/04/12 05:43:17;;;;;;;3.10;1.07;;;26.60;36.10;;;;;;5072927;28;20245;-69
2023/04/12 05:45:45;;;;;;;1.33;1.00;;;26.40;35.60;;;;;;5069422;28;20199;-67
2023/04/12 05:48:12;;;;;;;2.33;1.10;;;26.80;34.30;;;;;;5071652;28;20917;-67
2023/04/12 05:50:39;;;;;;;1.80;0.93;;;26.60;33.60;;;;;;5070419;28;20183;-68
2023/04/12 05:53:07;;;;;;;2.00;1.00;;;25.50;36.40;;;;;;5070983;28;20179;-66
2023/04/12 05:55:34;;;;;;;3.83;1.07;;;24.60;37.90;;;;;;5072460;28;20649;-66
2023/04/12 05:58:01;;;;;;;2.13;1.00;;;24.10;39.20;;;;;;5071088;28;20188;-69
2023/04/12 06:00:29;;;;;;;4.67;1.47;;;23.50;39.80;;;;;;5074392;28;20175;-70
2023/04/12 06:02:57;;;;;;;2.67;1.50;;;23.30;41.40;;;;;;5067753;28;20203;-68
2023/04/12 06:05:26;;;;;;;2.37;1.27;;;23.30;42.80;;;;;;5070610;28;20227;-67
2023/04/12 06:07:54;;;;;;;5.70;1.67;;;23.50;42.70;;;;;;5078226;28;20652;-68
2023/04/12 06:10:21;;;;;;;3.63;1.80;;;24.60;42.60;;;;;;5072145;28;20326;-67
2023/04/12 06:12:48;;;;;;;1.70;1.33;;;25.60;39.90;;;;;;5071851;28;20185;-68
2023/04/12 06:15:18;;;;;;;4.57;1.60;;;26.50;37.60;;;;;;5073167;28;20183;-68
2023/04/12 06:17:45;;;;;;;4.30;1.83;;;27.10;36.70;;;;;;5070876;28;20607;-69
2023/04/12 06:20:14;;;;;;;3.93;1.63;;;27.70;34.50;;;;;;5072768;28;20253;-68
2023/04/12 06:22:41;;;;;;;2.83;1.40;;;27.60;36.10;;;;;;5069729;28;20665;-69
2023/04/12 06:25:09;;;;;;;1.30;1.00;;;28.00;35.90;;;;;;5075899;28;20232;-69
2023/04/12 06:27:36;;;;;;;2.87;1.07;;;28.20;33.50;;;;;;5071136;28;20214;-66
2023/04/12 06:30:03;;;;;;;7.70;1.50;;;28.00;33.40;;;;;;5066778;28;20191;-69
2023/04/12 06:32:31;;;;;;;2.57;1.40;;;28.00;33.20;;;;;;5070877;28;20238;-70
2023/04/12 06:34:58;;;;;;;2.97;1.53;;;26.50;37.90;;;;;;5074406;28;20190;-68
2023/04/12 06:37:25;;;;;;;3.77;1.70;;;25.80;39.90;;;;;;5074403;28;20224;-67
2023/04/12 06:39:53;;;;;;;2.30;1.37;;;25.60;40.70;;;;;;5070922;28;20295;-70
2023/04/12 06:42:20;;;;;;;3.53;1.57;;;25.50;40.40;;;;;;5066561;28;20183;-69
2023/04/12 06:44:48;;;;;;;1.70;1.40;;;25.80;39.90;;;;;;5067525;28;20293;-67
2023/04/12 06:47:15;;;;;;;2.87;1.43;;;25.80;40.00;;;;;;5071067;28;20602;-67
2023/04/12 06:49:42;;;;;;;2.57;1.50;;;25.40;41.10;;;;;;5073271;28;20209;-68
2023/04/12 06:52:10;;;;;;;3.17;1.60;;;24.40;42.60;;;;;;5071165;28;20182;-67
2023/04/12 06:54:38;;;;;;;2.70;1.20;;;23.80;44.00;;;;;;5068130;28;20175;-70
2023/04/12 06:57:12;;;;;;;3.67;1.50;;;23.10;45.90;;;;;;5067853;28;20187;-66
2023/04/12 06:59:40;;;;;;;3.57;1.43;;;22.60;47.30;;;;;;5075344;28;20218;-68
2023/04/12 07:02:07;;;;;;;2.87;1.70;;;22.20;48.40;;;;;;5069588;28;20194;-72
2023/04/12 07:04:35;;;;;;;5.23;1.20;;;22.10;48.10;;;;;;5069579;28;20235;-70
2023/04/12 07:07:02;;;;;;;3.13;1.57;;;21.90;48.30;;;;;;5071811;28;20633;-70
2023/04/12 07:09:32;;;;;;;2.23;1.20;;;21.50;49.50;;;;;;5065604;28;20241;-71
2023/04/12 07:12:01;;;;;;;1.60;1.30;;;21.30;50.20;;;;;;5066606;28;20171;-68
2023/04/12 07:14:29;;;;;;;2.93;1.30;;;21.20;51.20;;;;;;5071521;28;20556;-71
2023/04/12 07:16:56;;;;;;;1.70;1.40;;;21.00;51.70;;;;;;5070021;28;20539;-70
2023/04/12 07:19:24;;;;;;;4.60;1.57;;;20.90;52.20;;;;;;5068488;28;20190;-68
2023/04/12 07:21:51;;;;;;;5.33;1.60;;;20.80;52.60;;;;;;5066455;28;20178;-70
2023/04/12 07:24:18;;;;;;;5.40;1.80;;;20.70;53.30;;;;;;5068868;28;20206;-70
2023/04/12 07:26:46;;;;;;;3.43;1.63;;;20.60;53.40;;;;;;5084562;28;20176;-71
2023/04/12 07:29:13;;;;;;;4.13;1.47;;;20.50;53.90;;;;;;5069999;28;20208;-69
2023/04/12 07:31:40;;;;;;;4.43;1.67;;;20.40;54.00;;;;;;5069164;28;20183;-70
2023/04/12 07:34:08;;;;;;;3.93;1.73;;;20.30;54.00;;;;;;5072515;28;20187;-67
2023/04/12 07:36:35;;;;;;;4.30;1.47;;;20.30;54.40;;;;;;5069410;28;20260;-68
2023/04/12 07:39:02;;;;;;;3.67;1.60;;;20.20;55.00;;;;;;5069631;28;20184;-70
2023/04/12 07:41:30;;;;;;;2.50;1.77;;;20.00;55.40;;;;;;5068886;28;20218;-70
2023/04/12 07:43:57;;;;;;;3.00;1.33;;;19.90;55.70;;;;;;5069471;28;20257;-70
2023/04/12 07:46:24;;;;;;;4.47;1.90;;;19.90;56.90;;;;;;5065799;28;20274;-71
2023/04/12 07:48:52;;;;;;;3.90;1.60;;;19.80;57.50;;;;;;5071746;28;20191;-71
2023/04/12 07:51:19;;;;;;;1.83;1.47;;;19.70;58.10;;;;;;5071553;28;20171;-71
2023/04/12 07:53:50;;;;;;;4.00;2.10;;;19.70;58.50;;;;;;5071221;28;20183;-70
2023/04/12 07:56:17;;;;;;;3.53;1.37;;;19.60;58.90;;;;;;5069815;28;20179;-69
2023/04/12 07:58:45;;;;;;;3.13;1.80;;;19.50;58.80;;;;;;5071866;28;21183;-68
2023/04/12 08:01:14;;;;;;;1.80;1.10;;;19.50;59.00;;;;;;5069543;28;20254;-68
2023/04/12 08:03:42;;;;;;;6.53;1.50;;;19.40;59.40;;;;;;5059662;28;20613;-68
2023/04/12 08:06:09;;;;;;;4.43;1.67;;;19.30;59.50;;;;;;5076330;28;20481;-69
2023/04/12 08:08:37;;;;;;;4.83;1.67;;;19.30;59.80;;;;;;5064184;28;20277;-67
2023/04/12 08:11:05;;;;;;;3.53;2.03;;;19.20;59.90;;;;;;5075028;28;20240;-67
2023/04/12 08:13:34;;;;;;;5.30;2.43;;;19.20;60.40;;;;;;5075266;28;20639;-66
2023/04/12 08:16:02;;;;;;;5.67;2.27;;;19.10;60.70;;;;;;5069518;28;20208;-66
2023/04/12 08:18:29;;;;;;;5.17;1.87;;;19.00;61.00;;;;;;5073150;28;20236;-67
2023/04/12 08:20:57;;;;;;;4.40;2.10;;;19.00;61.50;;;;;;5065367;28;20234;-66
2023/04/12 08:23:26;;;;;;;6.20;3.20;;;19.00;61.60;;;;;;5073507;28;20258;-66
2023/04/12 08:26:01;;;;;;;8.27;5.97;;;18.90;61.70;;;;;;5074994;28;20273;-67
2023/04/12 08:28:29;;;;;;;5.67;2.93;;;18.90;61.90;;;;;;5073266;28;20189;-67
2023/04/12 08:30:57;;;;;;;9.93;3.50;;;18.80;62.30;;;;;;5074611;28;20634;-66
2023/04/12 08:33:25;;;;;;;5.73;3.10;;;18.80;62.60;;;;;;5074885;28;20186;-66
2023/04/12 08:35:52;;;;;;;8.37;3.57;;;18.80;62.70;;;;;;5075061;28;20633;-66
2023/04/12 08:38:20;;;;;;;8.80;3.13;;;18.80;63.00;;;;;;5074947;28;20183;-66
2023/04/12 08:40:47;;;;;;;6.40;2.70;;;18.80;63.10;;;;;;5075180;28;20179;-66
2023/04/12 08:43:17;;;;;;;4.70;2.57;;;18.70;63.20;;;;;;5073983;28;20283;-65
2023/04/12 08:45:44;;;;;;;5.17;2.60;;;18.70;63.20;;;;;;5072529;28;20553;-65
2023/04/12 08:48:12;;;;;;;6.47;2.40;;;18.70;63.30;;;;;;5071558;28;20221;-65
2023/04/12 08:50:43;;;;;;;3.97;2.17;;;18.70;63.60;;;;;;5074393;28;20188;-66
2023/04/12 08:53:11;;;;;;;5.77;2.30;;;18.60;64.00;;;;;;5074782;28;20171;-67
2023/04/12 08:55:38;;;;;;;7.10;2.60;;;18.50;64.70;;;;;;5072917;28;20205;-66
2023/04/12 08:58:08;;;;;;;4.07;2.60;;;18.50;65.00;;;;;;5072291;28;20192;-68
2023/04/12 09:00:37;;;;;;;5.23;2.73;;;18.40;65.60;;;;;;5073513;28;20211;-66
2023/04/12 09:03:05;;;;;;;7.13;2.90;;;18.30;65.80;;;;;;5072790;28;20256;-67
2023/04/12 09:05:33;;;;;;;11.67;3.30;;;18.30;66.10;;;;;;5070767;28;20686;-66
2023/04/12 09:08:00;;;;;;;7.07;2.60;;;18.20;66.30;;;;;;5073071;28;20183;-68
2023/04/12 09:10:37;;;;;;;6.17;3.00;;;18.20;66.70;;;;;;5071147;28;20298;-67
2023/04/12 09:13:05;;;;;;;5.30;2.67;;;18.20;66.80;;;;;;5073983;28;20189;-67
2023/04/12 09:15:34;;;;;;;3.83;2.50;;;18.10;67.20;;;;;;5074185;28;20179;-67
2023/04/12 09:18:10;;;;;;;5.63;3.00;;;18.10;67.60;;;;;;5066298;28;20214;-66
2023/04/12 09:20:38;;;;;;;4.80;2.80;;;18.00;67.50;;;;;;5065120;28;20678;-67
2023/04/12 09:23:37;;;;;;;13.33;3.00;;;18.00;67.60;;;;;;5064758;28;20330;-66
2023/04/12 09:26:05;;;;;;;5.30;2.47;;;17.90;67.90;;;;;;5054270;28;20197;-65
2023/04/12 09:28:33;;;;;;;7.53;2.83;;;17.80;67.90;;;;;;5073060;28;20545;-66
2023/04/12 09:31:02;;;;;;;5.47;2.50;;;17.80;68.30;;;;;;5067160;28;20290;-66
2023/04/12 09:33:38;;;;;;;4.43;2.80;;;17.80;68.50;;;;;;5067339;28;20579;-66
2023/04/12 09:36:13;;;;;;;6.93;3.10;;;17.80;68.60;;;;;;5066273;28;20653;-67
2023/04/12 09:38:42;;;;;;;5.47;2.70;;;17.70;68.80;;;;;;5063611;28;20331;-68
2023/04/12 09:41:29;;;;;;;8.03;2.80;;;17.80;69.20;;;;;;5067471;28;20275;-67
2023/04/12 09:43:56;;;;;;;7.53;3.43;;;17.70;69.60;;;;;;5073179;28;20257;-65
2023/04/12 09:46:23;;;;;;;7.90;3.90;;;17.70;69.50;;;;;;5065675;28;20206;-66
2023/04/12 09:48:53;;;;;;;10.37;3.63;;;17.70;69.90;;;;;;5071623;28;20210;-66
2023/04/12 09:51:29;;;;;;;7.20;3.47;;;17.70;69.60;;;;;;5071071;28;20183;-65
2023/04/12 09:54:01;;;;;;;10.57;3.70;;;17.70;70.00;;;;;;5069885;28;20187;-66
2023/04/12 09:56:30;;;;;;;9.90;3.57;;;17.60;70.20;;;;;;5065846;28;20176;-65
2023/04/12 09:59:02;;;;;;;12.40;5.73;;;17.70;70.30;;;;;;5072344;28;20179;-67
2023/04/12 10:01:50;;;;;;;8.80;4.83;;;17.60;70.20;;;;;;5073243;28;20241;-68
2023/04/12 10:04:19;;;;;;;9.97;4.60;;;17.60;70.60;;;;;;5070186;28;20618;-65
2023/04/12 10:06:46;;;;;;;9.60;3.73;;;17.50;70.80;;;;;;5069626;28;20186;-65
2023/04/12 10:09:14;;;;;;;6.47;3.23;;;17.50;71.00;;;;;;5070065;28;20730;-68
2023/04/12 10:11:43;;;;;;;6.07;3.50;;;17.60;70.80;;;;;;5070079;28;20269;-69
2023/04/12 10:14:11;;;;;;;6.67;3.43;;;17.60;70.70;;;;;;5072504;28;20175;-69
2023/04/12 10:16:41;;;;;;;7.73;3.33;;;17.70;70.80;;;;;;5072390;28;20207;-68
2023/04/12 10:19:09;;;;;;;4.77;2.60;;;17.80;70.60;;;;;;5072804;28;20187;-71
2023/04/12 10:21:37;;;;;;;5.63;3.27;;;17.80;70.40;;;;;;5072316;28;20709;-71
2023/04/12 10:24:08;;;;;;;5.97;2.80;;;17.90;69.90;;;;;;5072641;28;20248;-67
2023/04/12 10:26:40;;;;;;;5.10;2.83;;;18.00;69.80;;;;;;5072425;28;20706;-71
2023/04/12 10:29:27;;;;;;;5.43;3.13;;;18.00;70.00;;;;;;5071675;28;20238;-73
2023/04/12 10:31:56;;;;;;;7.03;2.90;;;18.00;69.90;;;;;;5058974;28;20201;-73
2023/04/12 10:34:30;;;;;;;4.50;2.47;;;17.90;70.00;;;;;;5071567;28;20641;-70
2023/04/12 10:36:59;;;;;;;3.70;2.30;;;17.80;70.10;;;;;;5070190;28;20192;-66
2023/04/12 10:39:39;;;;;;;6.50;2.37;;;17.80;70.50;;;;;;5071192;28;20183;-66
2023/04/12 10:42:29;;;;;;;5.27;2.50;;;17.80;70.70;;;;;;5070116;28;20195;-70
2023/04/12 10:45:19;;;;;;;7.47;2.77;;;17.70;70.70;;;;;;5069490;28;20315;-71
2023/04/12 10:47:49;;;;;;;7.60;3.07;;;17.70;71.50;;;;;;5060792;28;20186;-67
2023/04/12 10:50:25;;;;;;;5.37;2.57;;;17.70;71.50;;;;;;5071784;28;20181;-68
2023/04/12 10:53:17;;;;;;;5.43;2.67;;;17.70;71.60;;;;;;5071581;28;20206;-74
2023/04/12 10:55:45;;;;;;;7.00;3.13;;;17.60;71.90;;;;;;5069684;28;20194;-67
2023/04/12 10:58:47;;;;;;;6.43;2.90;;;17.50;71.90;;;;;;5070839;28;20183;-72
2023/04/12 11:01:18;;;;;;;9.23;3.67;;;17.50;72.30;;;;;;5065776;28;20607;-70
2023/04/12 11:04:08;;;;;;;8.13;3.13;;;17.50;72.30;;;;;;5066313;28;20223;-65
2023/04/12 11:07:01;;;;;;;6.33;3.47;;;17.40;72.80;;;;;;5068518;28;20271;-70
2023/04/12 11:09:32;;;;;;;6.33;3.03;;;17.30;72.60;;;;;;5070692;28;20226;-70
2023/04/12 11:12:05;;;;;;;4.57;2.90;;;17.30;72.90;;;;;;5072088;28;20183;-70
2023/04/12 11:14:36;;;;;;;5.53;3.10;;;17.30;73.10;;;;;;5072460;28;20205;-69
2023/04/12 11:17:13;;;;;;;5.30;2.80;;;17.30;73.30;;;;;;5069135;28;20643;-67
2023/04/12 11:19:48;;;;;;;7.10;3.40;;;17.20;73.50;;;;;;5069005;28;20247;-71
2023/04/12 11:22:17;;;;;;;6.80;3.43;;;17.20;73.60;;;;;;5064708;28;20240;-70
2023/04/12 11:24:51;;;;;;;5.87;3.63;;;17.20;74.00;;;;;;5071720;28;20259;-70
2023/04/12 11:27:25;;;;;;;11.07;3.80;;;17.20;74.10;;;;;;5072302;28;20252;-70
2023/04/12 11:29:58;;;;;;;9.30;3.20;;;17.10;74.30;;;;;;5071015;28;20634;-68
2023/04/12 11:32:30;;;;;;;10.13;3.50;;;17.10;74.30;;;;;;5070992;28;20175;-70
2023/04/12 11:34:58;;;;;;;5.73;3.20;;;17.10;74.20;;;;;;5069972;28;20202;-71
2023/04/12 11:37:25;;;;;;;7.13;3.23;;;17.10;74.20;;;;;;5071832;28;20183;-71
2023/04/12 11:39:56;;;;;;;8.00;3.20;;;17.20;74.20;;;;;;5074860;28;20179;-71
2023/04/12 11:42:25;;;;;;;5.30;3.00;;;17.20;74.30;;;;;;5076315;28;20640;-66
2023/04/12 11:44:53;;;;;;;6.60;2.90;;;17.30;74.40;;;;;;5075856;28;20300;-72
2023/04/12 11:47:23;;;;;;;7.60;2.87;;;17.30;74.30;;;;;;5064352;28;20187;-66
2023/04/12 11:49:58;;;;;;;7.90;3.10;;;17.40;74.20;;;;;;5067881;28;20262;-66
2023/04/12 11:52:32;;;;;;;6.13;3.07;;;17.40;74.30;;;;;;5075285;28;20179;-71
2023/04/12 11:55:09;;;;;;;6.63;2.93;;;17.30;74.30;;;;;;5074663;28;20675;-69
2023/04/12 11:57:38;;;;;;;4.97;2.70;;;17.30;74.40;;;;;;5061295;28;20187;-73
2023/04/12 12:00:06;;;;;;;9.13;3.10;;;17.30;74.50;;;;;;5074347;28;20183;-67
2023/04/12 12:02:37;;;;;;;5.93;2.90;;;17.30;74.70;;;;;;5074072;28;20225;-67
2023/04/12 12:05:09;;;;;;;8.13;3.00;;;17.30;75.00;;;;;;5071441;28;20673;-66
2023/04/12 12:07:37;;;;;;;7.03;2.80;;;17.30;75.00;;;;;;5075520;28;20561;-67
2023/04/12 12:10:06;;;;;;;7.67;3.23;;;17.20;75.10;;;;;;5074944;28;20312;-68
2023/04/12 12:12:36;;;;;;;5.63;2.70;;;17.20;75.30;;;;;;5075571;28;20647;-67
2023/04/12 12:15:05;;;;;;;5.20;2.93;;;17.20;75.40;;;;;;5070809;28;20180;-69
2023/04/12 12:17:39;;;;;;;6.00;2.70;;;17.20;75.80;;;;;;5057199;28;20653;-70
2023/04/12 12:20:20;;;;;;;6.17;4.03;;;17.20;75.90;;;;;;5073016;28;20547;-71
2023/04/12 12:22:48;;;;;;;8.63;5.03;;;17.20;75.70;;;;;;5074785;28;20270;-70
2023/04/12 12:25:18;;;;;;;12.70;5.27;;;17.10;75.30;;;;;;5073761;28;20200;-71
2023/04/12 12:27:50;;;;;;;7.83;5.00;;;17.10;75.30;;;;;;5073750;28;20656;-69
2023/04/12 12:30:21;;;;;;;10.23;5.17;;;17.10;75.00;;;;;;5065412;28;20171;-71
2023/04/12 12:32:53;;;;;;;8.47;5.20;;;17.10;74.80;;;;;;5074390;28;20546;-71
2023/04/12 12:35:20;;;;;;;12.03;5.43;;;17.10;74.70;;;;;;5075094;28;20179;-70
2023/04/12 12:37:54;;;;;;;8.17;3.97;;;17.10;74.60;;;;;;5074870;28;20175;-72
2023/04/12 12:40:31;;;;;;;6.10;3.93;;;17.00;74.40;;;;;;5074582;28;20223;-71
2023/04/12 12:42:59;;;;;;;8.87;4.60;;;17.10;74.40;;;;;;5074108;28;20191;-69
2023/04/12 12:45:28;;;;;;;6.70;3.80;;;17.10;74.00;;;;;;5074578;28;20205;-69
2023/04/12 12:47:58;;;;;;;8.50;4.13;;;17.10;73.60;;;;;;5074312;28;20205;-72
2023/04/12 12:50:28;;;;;;;10.73;4.03;;;17.10;73.20;;;;;;5074009;28;20187;-70
2023/04/12 12:52:56;;;;;;;8.03;3.70;;;17.00;72.90;;;;;;5074916;28;20175;-72
2023/04/12 12:55:24;;;;;;;6.07;3.73;;;17.00;72.90;;;;;;5078466;28;20213;-72
2023/04/12 12:57:57;;;;;;;8.40;3.80;;;17.00;73.00;;;;;;5074362;28;20590;-70
2023/04/12 13:00:26;;;;;;;7.90;3.47;;;17.10;72.70;;;;;;5074531;28;20179;-73